createdAt,value
2023-01-29T00:02:01.077Z,2.78
2023-01-29T00:05:25.555Z,2.82
2023-01-29T00:08:29.435Z,2.73
2023-01-29T00:11:33.390Z,2.57
2023-01-29T00:14:37.209Z,2.47
2023-01-29T00:17:41.294Z,2.54
2023-01-29T00:20:45.281Z,2.30
2023-01-29T00:23:49.363Z,2.64
2023-01-29T00:26:53.338Z,2.55
2023-01-29T00:29:57.420Z,2.47
2023-01-29T00:33:01.670Z,2.83
2023-01-29T00:36:05.628Z,2.86
2023-01-29T00:39:09.506Z,2.89
2023-01-29T00:42:13.953Z,2.62
2023-01-29T00:45:17.806Z,2.54
2023-01-29T00:48:21.804Z,2.70
2023-01-29T00:51:25.929Z,2.72
2023-01-29T00:54:31.409Z,2.68
2023-01-29T00:57:36.805Z,2.75
2023-01-29T01:00:40.890Z,2.91
2023-01-29T01:03:44.866Z,2.80
2023-01-29T01:06:48.874Z,2.32
2023-01-29T01:09:52.857Z,2.68
2023-01-29T01:12:56.610Z,2.37
2023-01-29T01:16:00.494Z,2.61
2023-01-29T01:19:04.369Z,2.26
2023-01-29T01:22:08.352Z,2.53
2023-01-29T01:25:12.270Z,2.87
2023-01-29T01:28:16.131Z,2.83
2023-01-29T01:31:20.160Z,2.64
2023-01-29T01:34:24.117Z,2.71
2023-01-29T01:37:28.236Z,2.17
2023-01-29T01:40:32.165Z,2.27
2023-01-29T01:43:36.273Z,2.40
2023-01-29T01:46:40.404Z,2.53
2023-01-29T01:49:44.287Z,2.57
2023-01-29T01:52:48.315Z,2.53
2023-01-29T01:55:52.260Z,2.24
2023-01-29T01:58:56.392Z,2.64
2023-01-29T02:02:00.523Z,2.25
2023-01-29T02:05:04.455Z,2.70
2023-01-29T02:08:08.450Z,2.85
2023-01-29T02:11:12.274Z,2.99
2023-01-29T02:14:16.335Z,2.88
2023-01-29T02:17:20.261Z,2.55
2023-01-29T02:20:24.048Z,2.78
2023-01-29T02:23:31.243Z,2.54
2023-01-29T02:26:35.172Z,2.93
2023-01-29T02:29:39.409Z,3.08
2023-01-29T02:32:43.562Z,3.37
2023-01-29T02:35:47.361Z,2.96
2023-01-29T02:38:51.183Z,3.24
2023-01-29T02:41:55.316Z,2.76
2023-01-29T02:44:59.542Z,2.47
2023-01-29T02:48:03.603Z,2.93
2023-01-29T02:51:07.473Z,2.83
2023-01-29T02:54:11.571Z,3.10
2023-01-29T02:57:15.698Z,2.88
2023-01-29T03:00:19.701Z,2.81
2023-01-29T03:03:23.561Z,2.55
2023-01-29T03:06:27.438Z,2.75
2023-01-29T03:09:31.349Z,3.17
2023-01-29T03:12:35.444Z,2.70
2023-01-29T03:15:39.200Z,2.94
2023-01-29T03:18:42.934Z,3.20
2023-01-29T03:21:46.772Z,3.22
2023-01-29T03:24:50.882Z,3.16
2023-01-29T03:27:55.033Z,2.76
2023-01-29T03:30:59.042Z,3.06
2023-01-29T03:34:02.932Z,2.88
2023-01-29T03:37:06.865Z,2.84
2023-01-29T03:40:11.060Z,3.31
2023-01-29T03:43:15.053Z,2.75
2023-01-29T03:46:19.036Z,3.09
2023-01-29T03:49:22.989Z,3.40
2023-01-29T03:52:26.983Z,3.07
2023-01-29T03:55:31.230Z,2.99
2023-01-29T03:58:35.265Z,2.96
2023-01-29T04:01:39.285Z,3.18
2023-01-29T04:04:42.924Z,2.88
2023-01-29T04:07:46.877Z,2.95
2023-01-29T04:10:50.878Z,2.69
2023-01-29T04:13:57.699Z,2.90
2023-01-29T04:17:01.714Z,2.99
2023-01-29T04:20:05.596Z,2.96
2023-01-29T04:23:09.577Z,3.12
2023-01-29T04:26:13.763Z,2.78
2023-01-29T04:29:17.676Z,3.27
2023-01-29T04:32:21.508Z,3.58
2023-01-29T04:35:25.440Z,3.19
2023-01-29T04:38:29.706Z,3.35
2023-01-29T04:41:33.555Z,3.36
2023-01-29T04:44:37.449Z,3.59
2023-01-29T04:47:41.575Z,3.06
2023-01-29T04:50:45.583Z,2.91
2023-01-29T04:53:49.449Z,3.38
2023-01-29T04:56:53.270Z,3.40
2023-01-29T04:59:57.231Z,2.76
2023-01-29T05:03:01.334Z,2.90
2023-01-29T05:06:05.386Z,3.01
2023-01-29T05:09:09.292Z,2.95
2023-01-29T05:12:13.155Z,3.43
2023-01-29T05:15:17.269Z,3.60
2023-01-29T05:18:21.529Z,3.38
2023-01-29T05:21:25.523Z,3.18
2023-01-29T05:24:29.510Z,3.45
2023-01-29T05:27:33.504Z,3.91
2023-01-29T05:30:37.588Z,3.25
2023-01-29T05:33:41.431Z,3.58
2023-01-29T05:36:45.430Z,3.78
2023-01-29T05:39:49.334Z,3.34
2023-01-29T05:42:53.333Z,3.68
2023-01-29T05:45:57.391Z,3.62
2023-01-29T05:49:01.290Z,3.47
2023-01-29T05:52:05.229Z,3.49
2023-01-29T05:55:09.361Z,3.78
2023-01-29T05:58:13.426Z,3.27
2023-01-29T06:01:17.576Z,3.62
2023-01-29T06:04:21.578Z,3.28
2023-01-29T06:07:25.455Z,3.68
2023-01-29T06:10:29.568Z,3.65
2023-01-29T06:13:33.672Z,3.91
2023-01-29T06:16:37.747Z,3.68
2023-01-29T06:19:41.656Z,3.86
2023-01-29T06:22:45.424Z,3.96
2023-01-29T06:25:49.408Z,3.85
2023-01-29T06:28:53.246Z,3.53
2023-01-29T06:31:57.034Z,3.36
2023-01-29T06:35:00.806Z,3.76
2023-01-29T06:38:04.797Z,3.54
2023-01-29T06:41:08.721Z,3.23
2023-01-29T06:44:12.673Z,3.05
2023-01-29T06:47:16.532Z,2.93
2023-01-29T06:50:20.716Z,3.18
2023-01-29T06:53:24.975Z,3.22
2023-01-29T06:56:29.216Z,3.61
2023-01-29T06:59:33.213Z,3.33
2023-01-29T07:02:37.073Z,3.49
2023-01-29T07:05:41.200Z,3.19
2023-01-29T07:08:45.230Z,2.84
2023-01-29T07:11:49.323Z,2.58
2023-01-29T07:14:53.124Z,2.57
2023-01-29T07:17:57.163Z,3.10
2023-01-29T07:21:04.167Z,3.58
2023-01-29T07:24:08.296Z,3.27
2023-01-29T07:27:12.269Z,3.05
2023-01-29T07:30:16.540Z,2.97
2023-01-29T07:33:20.757Z,3.27
2023-01-29T07:36:24.949Z,2.96
2023-01-29T07:39:29.223Z,3.49
2023-01-29T07:42:33.092Z,3.91
2023-01-29T07:45:37.053Z,3.92
2023-01-29T07:48:41.028Z,4.06
2023-01-29T07:51:45.262Z,3.70
2023-01-29T07:54:49.234Z,3.73
2023-01-29T07:57:53.163Z,3.83
2023-01-29T08:00:57.132Z,3.58
2023-01-29T08:04:01.173Z,3.75
2023-01-29T08:07:05.219Z,3.86
2023-01-29T08:10:09.383Z,4.27
2023-01-29T08:13:13.451Z,4.16
2023-01-29T08:16:19.371Z,4.52
2023-01-29T08:19:23.401Z,4.68
2023-01-29T08:22:27.475Z,4.46
2023-01-29T08:25:31.696Z,4.36
2023-01-29T08:28:35.607Z,4.22
2023-01-29T08:31:39.748Z,4.67
2023-01-29T08:34:43.719Z,4.83
2023-01-29T08:37:47.856Z,4.87
2023-01-29T08:40:51.700Z,4.88
2023-01-29T08:43:55.423Z,4.03
2023-01-29T08:46:59.575Z,4.03
2023-01-29T08:50:03.608Z,4.37
2023-01-29T08:53:07.629Z,4.17
2023-01-29T08:56:11.638Z,4.03
2023-01-29T08:59:15.610Z,3.70
2023-01-29T09:02:19.989Z,4.02
2023-01-29T09:05:24.025Z,4.72
2023-01-29T09:08:28.209Z,4.99
2023-01-29T09:11:32.047Z,4.97
2023-01-29T09:14:36.215Z,5.15
2023-01-29T09:17:40.613Z,5.28
2023-01-29T09:20:44.810Z,5.40
2023-01-29T09:23:48.575Z,5.38
2023-01-29T09:26:52.455Z,5.22
2023-01-29T09:29:56.410Z,5.11
2023-01-29T09:33:00.476Z,5.11
2023-01-29T09:36:04.430Z,5.06
2023-01-29T09:39:08.156Z,4.93
2023-01-29T09:42:12.201Z,5.17
2023-01-29T09:45:16.767Z,5.29
2023-01-29T09:48:21.070Z,5.41
2023-01-29T09:51:25.191Z,5.36
2023-01-29T09:54:29.234Z,5.27
2023-01-29T09:57:33.468Z,5.22
2023-01-29T10:00:37.462Z,5.40
2023-01-29T10:03:41.631Z,4.87
2023-01-29T10:06:45.639Z,4.66
2023-01-29T10:09:49.663Z,4.38
2023-01-29T10:12:53.964Z,4.76
2023-01-29T10:15:58.001Z,4.90
2023-01-29T10:19:01.994Z,4.89
2023-01-29T10:22:05.859Z,4.68
2023-01-29T10:25:09.963Z,4.69
2023-01-29T10:28:14.101Z,5.01
2023-01-29T10:31:18.252Z,5.00
2023-01-29T10:34:22.462Z,5.04
2023-01-29T10:37:26.427Z,5.00
2023-01-29T10:40:30.491Z,5.47
2023-01-29T10:43:34.717Z,5.18
2023-01-29T10:46:38.698Z,5.47
2023-01-29T10:49:42.454Z,5.53
2023-01-29T10:52:46.390Z,5.27
2023-01-29T10:55:50.727Z,5.31
2023-01-29T10:58:54.724Z,5.67
2023-01-29T11:01:59.106Z,5.66
2023-01-29T11:05:03.221Z,5.64
2023-01-29T11:08:07.145Z,5.66
2023-01-29T11:11:14.316Z,5.84
2023-01-29T11:14:18.054Z,5.62
2023-01-29T11:17:22.364Z,5.75
2023-01-29T11:20:26.664Z,5.82
2023-01-29T11:23:31.306Z,5.57
2023-01-29T11:26:35.331Z,5.80
2023-01-29T11:29:39.681Z,5.84
2023-01-29T11:32:44.064Z,5.92
2023-01-29T11:35:47.618Z,5.95
2023-01-29T11:38:51.710Z,6.01
2023-01-29T11:41:56.024Z,6.00
2023-01-29T11:45:00.279Z,6.05
2023-01-29T11:48:04.263Z,5.95
2023-01-29T11:51:08.061Z,6.08
2023-01-29T11:54:12.000Z,6.02
2023-01-29T11:57:16.536Z,5.84
2023-01-29T12:00:21.319Z,5.96
2023-01-29T12:03:25.282Z,6.23
2023-01-29T12:06:29.087Z,6.10
2023-01-29T12:09:33.203Z,6.13
2023-01-29T12:12:37.026Z,6.13
2023-01-29T12:15:41.141Z,6.21
2023-01-29T12:18:45.050Z,6.24
2023-01-29T12:21:48.967Z,6.30
2023-01-29T12:24:53.417Z,6.17
2023-01-29T12:27:57.433Z,6.26
2023-01-29T12:31:04.469Z,6.21
2023-01-29T12:34:09.350Z,6.25
2023-01-29T12:37:13.223Z,6.27
2023-01-29T12:40:17.683Z,6.12
2023-01-29T12:43:22.062Z,5.97
2023-01-29T12:46:26.377Z,6.20
2023-01-29T12:49:31.594Z,6.10
2023-01-29T12:52:35.559Z,6.43
2023-01-29T12:55:39.605Z,6.39
2023-01-29T12:58:43.609Z,6.58
2023-01-29T13:01:47.670Z,6.77
2023-01-29T13:04:51.588Z,6.59
2023-01-29T13:07:55.514Z,6.67
2023-01-29T13:10:59.765Z,6.64
2023-01-29T13:14:03.850Z,6.68
2023-01-29T13:17:07.772Z,6.68
2023-01-29T13:20:11.938Z,6.73
2023-01-29T13:23:15.882Z,6.87
2023-01-29T13:26:20.053Z,6.76
2023-01-29T13:29:24.184Z,6.88
2023-01-29T13:32:28.459Z,6.85
2023-01-29T13:35:33.414Z,6.86
2023-01-29T13:38:37.626Z,6.81
2023-01-29T13:41:41.886Z,6.70
2023-01-29T13:44:46.160Z,6.69
2023-01-29T13:47:50.051Z,6.43
2023-01-29T13:50:54.085Z,6.49
2023-01-29T13:53:58.372Z,6.59
2023-01-29T13:57:02.377Z,6.67
2023-01-29T14:00:06.591Z,6.57
2023-01-29T14:03:10.355Z,6.55
2023-01-29T14:06:14.467Z,6.62
2023-01-29T14:09:18.622Z,6.74
2023-01-29T14:12:24.508Z,6.65
2023-01-29T14:15:28.465Z,6.64
2023-01-29T14:18:32.559Z,6.58
2023-01-29T14:21:36.690Z,6.40
2023-01-29T14:24:40.664Z,6.21
2023-01-29T14:27:44.734Z,5.88
2023-01-29T14:30:48.971Z,6.13
2023-01-29T14:33:52.906Z,6.28
2023-01-29T14:36:57.071Z,5.82
2023-01-29T14:40:01.394Z,5.02
2023-01-29T14:43:05.709Z,5.11
2023-01-29T14:46:09.655Z,5.12
2023-01-29T14:49:13.755Z,4.92
2023-01-29T14:52:17.794Z,4.96
2023-01-29T14:55:21.998Z,4.52
2023-01-29T14:58:25.802Z,4.90
2023-01-29T15:01:30.013Z,4.86
2023-01-29T15:04:33.964Z,4.24
2023-01-29T15:07:38.276Z,4.68
2023-01-29T15:10:42.386Z,4.92
2023-01-29T15:13:46.179Z,4.67
2023-01-29T15:16:50.297Z,4.35
2023-01-29T15:19:54.023Z,4.68
2023-01-29T15:22:58.291Z,4.84
2023-01-29T15:26:02.134Z,4.68
2023-01-29T15:29:06.044Z,4.60
2023-01-29T15:32:09.752Z,4.93
2023-01-29T15:35:13.998Z,4.84
2023-01-29T15:38:17.661Z,4.56
2023-01-29T15:41:21.401Z,5.18
2023-01-29T15:44:25.153Z,5.05
2023-01-29T15:47:29.266Z,5.31
2023-01-29T15:50:33.481Z,4.79
2023-01-29T15:53:37.348Z,4.62
2023-01-29T15:56:41.197Z,4.73
2023-01-29T15:59:47.670Z,4.99
2023-01-29T16:02:51.582Z,4.42
2023-01-29T16:05:55.742Z,4.96
2023-01-29T16:08:59.812Z,5.37
2023-01-29T16:12:03.778Z,5.25
2023-01-29T16:18:29.978Z,4.64
2023-01-29T16:21:33.882Z,4.77
2023-01-29T16:24:37.938Z,4.49
2023-01-29T16:27:41.868Z,4.92
2023-01-29T16:30:45.695Z,4.72
2023-01-29T16:33:49.485Z,4.66
2023-01-29T16:36:54.401Z,4.52
2023-01-29T16:39:58.398Z,4.28
2023-01-29T16:43:02.384Z,4.32
2023-01-29T16:46:06.016Z,4.30
2023-01-29T16:49:10.317Z,4.15
2023-01-29T16:52:14.241Z,4.33
2023-01-29T16:55:18.728Z,4.47
2023-01-29T16:58:25.130Z,4.06
2023-01-29T17:01:29.917Z,3.48
2023-01-29T17:04:34.021Z,3.17
2023-01-29T17:07:38.110Z,2.93
2023-01-29T17:10:41.901Z,2.90
2023-01-29T17:13:45.576Z,2.90
2023-01-29T17:16:49.857Z,3.00
2023-01-29T17:19:54.054Z,2.68
2023-01-29T17:22:58.202Z,2.63
2023-01-29T17:26:02.313Z,2.58
2023-01-29T17:29:06.510Z,3.06
2023-01-29T17:32:10.820Z,2.95
2023-01-29T17:35:15.376Z,3.49
2023-01-29T17:38:26.495Z,3.30
2023-01-29T17:41:31.111Z,2.81
2023-01-29T17:44:35.466Z,3.18
2023-01-29T17:47:39.664Z,3.51
2023-01-29T17:50:43.582Z,3.73
2023-01-29T17:53:47.908Z,3.80
2023-01-29T17:56:51.890Z,3.77
2023-01-29T17:59:55.872Z,3.75
2023-01-29T18:03:00.025Z,3.27
2023-01-29T18:06:03.990Z,3.43
2023-01-29T18:09:08.249Z,3.55
2023-01-29T18:12:12.083Z,3.55
2023-01-29T18:15:16.378Z,3.36
2023-01-29T18:18:20.215Z,3.32
2023-01-29T18:21:24.253Z,2.68
2023-01-29T18:24:31.335Z,2.60
2023-01-29T18:27:35.433Z,2.47
2023-01-29T18:30:39.450Z,2.30
2023-01-29T18:33:43.483Z,2.46
2023-01-29T18:36:47.430Z,3.02
2023-01-29T18:39:51.552Z,2.47
2023-01-29T18:42:55.535Z,2.74
2023-01-29T18:45:59.487Z,2.65
2023-01-29T18:49:03.466Z,2.29
2023-01-29T18:52:07.551Z,2.86
2023-01-29T18:55:11.687Z,3.14
2023-01-29T18:58:26.870Z,2.49
2023-01-29T19:01:37.754Z,2.44
2023-01-29T19:04:41.551Z,2.57
2023-01-29T19:07:46.836Z,2.09
2023-01-29T19:10:50.961Z,2.62
2023-01-29T19:13:55.007Z,2.64
2023-01-29T19:16:58.956Z,2.27
2023-01-29T19:20:02.925Z,2.60
2023-01-29T19:23:06.701Z,2.93
2023-01-29T19:26:10.854Z,2.57
2023-01-29T19:29:16.564Z,2.28
2023-01-29T19:32:20.391Z,2.11
2023-01-29T19:35:24.344Z,2.10
2023-01-29T19:38:28.271Z,1.94
2023-01-29T19:41:32.470Z,1.69
2023-01-29T19:44:36.586Z,1.82
2023-01-29T19:47:40.506Z,1.73
2023-01-29T19:50:44.583Z,2.01
2023-01-29T19:53:48.751Z,1.94
2023-01-29T19:56:52.616Z,1.74
2023-01-29T19:59:56.355Z,1.74
2023-01-29T20:03:00.344Z,1.51
2023-01-29T20:06:04.557Z,1.59
2023-01-29T20:09:08.635Z,1.86
2023-01-29T20:12:12.804Z,1.60
2023-01-29T20:15:16.941Z,1.42
2023-01-29T20:18:20.933Z,1.65
2023-01-29T20:21:25.146Z,1.51
2023-01-29T20:24:29.163Z,1.62
2023-01-29T20:27:33.182Z,1.51
2023-01-29T20:30:37.155Z,1.38
2023-01-29T20:33:42.262Z,1.92
2023-01-29T20:36:45.986Z,2.00
2023-01-29T20:39:49.925Z,1.74
2023-01-29T20:42:53.839Z,1.31
2023-01-29T20:45:58.102Z,1.29
2023-01-29T20:49:02.179Z,1.36
2023-01-29T20:52:06.144Z,1.67
2023-01-29T20:55:10.101Z,1.94
2023-01-29T20:58:14.291Z,2.38
2023-01-29T21:01:18.522Z,2.55
2023-01-29T21:04:22.508Z,2.19
2023-01-29T21:07:26.466Z,1.95
2023-01-29T21:10:30.336Z,1.40
2023-01-29T21:13:34.422Z,1.87
2023-01-29T21:16:38.421Z,2.16
2023-01-29T21:19:42.390Z,1.91
2023-01-29T21:22:46.311Z,1.79
2023-01-29T21:25:50.206Z,2.18
2023-01-29T21:28:54.471Z,2.35
2023-01-29T21:31:58.481Z,1.67
2023-01-29T21:35:02.464Z,1.92
2023-01-29T21:38:06.387Z,2.17
2023-01-29T21:41:10.525Z,2.32
2023-01-29T21:44:14.559Z,1.98
2023-01-29T21:47:18.489Z,1.42
2023-01-29T21:50:22.588Z,1.41
2023-01-29T21:53:26.621Z,1.50
2023-01-29T21:56:30.719Z,1.44
2023-01-29T21:59:34.684Z,1.60
2023-01-29T22:02:38.797Z,1.64
2023-01-29T22:05:42.380Z,1.04
2023-01-29T22:08:46.424Z,0.96
2023-01-29T22:11:50.467Z,0.65
2023-01-29T22:14:54.495Z,0.86
2023-01-29T22:17:58.449Z,1.08
2023-01-29T22:21:02.609Z,0.56
2023-01-29T22:24:06.569Z,0.49
2023-01-29T22:27:10.673Z,0.70
2023-01-29T22:30:15.736Z,0.87
2023-01-29T22:33:19.516Z,1.58
2023-01-29T22:36:23.516Z,2.05
2023-01-29T22:39:27.739Z,2.38
2023-01-29T22:42:31.607Z,2.43
2023-01-29T22:45:35.332Z,2.64
2023-01-29T22:48:39.187Z,2.75
2023-01-29T22:51:43.234Z,2.87
2023-01-29T22:54:47.341Z,3.05
2023-01-29T22:57:51.159Z,3.11
2023-01-29T23:00:55.228Z,3.21
2023-01-29T23:03:59.305Z,3.26
2023-01-29T23:07:03.339Z,3.04
2023-01-29T23:10:07.408Z,2.59
2023-01-29T23:13:11.346Z,2.23
2023-01-29T23:16:15.252Z,2.01
2023-01-29T23:19:19.424Z,2.10
2023-01-29T23:22:23.469Z,1.96
2023-01-29T23:25:28.906Z,1.74
2023-01-29T23:28:33.089Z,1.81
2023-01-29T23:31:37.040Z,2.56
2023-01-29T23:34:43.229Z,2.77
2023-01-29T23:37:47.192Z,2.89
2023-01-29T23:40:51.234Z,2.66
2023-01-29T23:43:55.303Z,2.47
2023-01-29T23:46:59.406Z,2.64
2023-01-29T23:50:03.244Z,2.92
2023-01-29T23:53:07.429Z,2.91
2023-01-29T23:56:11.519Z,3.18
2023-01-29T23:59:15.678Z,3.37
